Time;durP1;ratioP1;P1;durP2;ratioP2;P2;SDS_P1;SDS_P2;PMS_P1;PMS_P2;Temp;Humidity;BMP_temperature;BMP_pressure;BME280_temperature;BME280_humidity;BME280_pressure;Samples;Min_cycle;Max_cycle;Signal;HPM_P1;HPM_P2
2021/07/16 00:02:14;;;;;;;16.20;11.93;;;;;;;18.12;100.00;100875.91;5071411;28;20193;-72
2021/07/16 00:04:39;;;;;;;13.50;10.33;;;;;;;18.10;100.00;100883.75;5071851;28;20555;-71
2021/07/16 00:07:04;;;;;;;17.80;11.10;;;;;;;18.09;100.00;100891.25;5071778;28;20300;-72
2021/07/16 00:09:29;;;;;;;17.77;11.30;;;;;;;18.12;100.00;100922.91;5070200;28;20297;-72
2021/07/16 00:11:55;;;;;;;18.30;10.70;;;;;;;18.07;100.00;100915.66;5071457;28;20326;-72
2021/07/16 00:14:20;;;;;;;12.00;10.90;;;;;;;18.06;100.00;100963.00;5071484;28;20189;-72
2021/07/16 00:16:46;;;;;;;10.60;8.97;;;;;;;18.03;100.00;100999.66;5071445;28;20186;-72
2021/07/16 00:19:11;;;;;;;15.13;11.33;;;;;;;17.98;100.00;100950.16;5071428;28;20178;-72
2021/07/16 00:21:37;;;;;;;21.63;10.53;;;;;;;17.99;100.00;100960.84;5071273;28;20171;-72
2021/07/16 00:24:02;;;;;;;12.20;10.93;;;;;;;17.99;100.00;100977.44;5071679;28;20185;-72
2021/07/16 00:26:29;;;;;;;18.43;11.20;;;;;;;17.99;100.00;100979.41;5071319;28;20185;-71
2021/07/16 00:28:54;;;;;;;12.63;10.20;;;;;;;17.94;100.00;100985.16;5071248;28;20178;-72
2021/07/16 00:31:20;;;;;;;15.47;10.60;;;;;;;17.93;100.00;100970.53;5070840;28;20278;-72
2021/07/16 00:33:45;;;;;;;11.07;10.03;;;;;;;17.91;100.00;101003.25;5069681;28;20193;-72
2021/07/16 00:36:10;;;;;;;15.90;10.70;;;;;;;17.87;100.00;101005.09;5071109;28;20178;-72
2021/07/16 00:38:37;;;;;;;11.13;10.03;;;;;;;17.86;100.00;101000.72;5069727;28;20179;-72
2021/07/16 00:41:03;;;;;;;11.17;10.07;;;;;;;17.87;100.00;101015.34;5069838;28;20579;-72
2021/07/16 00:43:28;;;;;;;11.10;9.73;;;;;;;17.88;100.00;101017.78;5070984;28;20178;-72
2021/07/16 00:45:54;;;;;;;16.40;12.00;;;;;;;17.83;100.00;101015.25;5070865;28;20170;-72
2021/07/16 00:48:19;;;;;;;9.83;8.87;;;;;;;17.85;100.00;101015.69;5071049;28;20185;-72
2021/07/16 00:50:45;;;;;;;16.90;9.73;;;;;;;17.80;100.00;101032.53;5070748;28;20681;-72
2021/07/16 00:53:14;;;;;;;14.43;9.60;;;;;;;17.77;100.00;101031.25;5070720;28;20174;-72
2021/07/16 00:55:41;;;;;;;11.50;10.33;;;;;;;17.79;100.00;101041.94;5070839;28;20542;-72
2021/07/16 00:58:06;;;;;;;13.17;10.17;;;;;;;17.77;100.00;101083.75;5070830;28;20174;-72
2021/07/16 01:00:32;;;;;;;14.77;11.33;;;;;;;17.74;100.00;101056.81;5070995;28;20182;-72
2021/07/16 01:02:57;;;;;;;16.00;8.70;;;;;;;17.75;100.00;101072.25;5070452;28;20190;-72
2021/07/16 01:05:23;;;;;;;14.07;10.83;;;;;;;17.74;100.00;101103.00;5070655;28;20653;-72
2021/07/16 01:07:51;;;;;;;12.90;10.87;;;;;;;17.71;100.00;101084.34;5070640;28;20576;-72
2021/07/16 01:10:17;;;;;;;11.60;10.47;;;;;;;17.69;100.00;101079.16;5070421;28;20210;-72
2021/07/16 01:12:43;;;;;;;11.37;10.03;;;;;;;17.74;100.00;101103.81;5070461;28;20170;-72
2021/07/16 01:15:14;;;;;;;12.53;9.47;;;;;;;17.70;100.00;101097.34;5070627;28;20170;-72
2021/07/16 01:17:39;;;;;;;10.00;9.00;;;;;;;17.69;100.00;101106.78;5070789;28;20185;-72
2021/07/16 01:20:10;;;;;;;11.80;10.40;;;;;;;17.65;100.00;101097.56;5070478;28;20174;-72
2021/07/16 01:22:38;;;;;;;12.57;10.33;;;;;;;17.65;100.00;101154.75;5070121;28;20626;-73
2021/07/16 01:25:08;;;;;;;10.07;9.03;;;;;;;17.64;100.00;101142.09;5070453;28;20184;-72
2021/07/16 01:27:34;;;;;;;10.30;8.10;;;;;;;17.61;100.00;101165.69;5070240;28;20174;-72
2021/07/16 01:30:00;;;;;;;9.10;7.43;;;;;;;17.61;100.00;101145.53;5070298;28;20245;-72
2021/07/16 01:32:27;;;;;;;11.77;9.90;;;;;;;17.63;100.00;101137.72;5068520;28;20182;-72
2021/07/16 01:34:52;;;;;;;10.17;9.23;;;;;;;17.59;100.00;101121.00;5070219;28;20581;-72
2021/07/16 01:37:18;;;;;;;9.17;8.17;;;;;;;17.53;100.00;101150.03;5070470;28;20174;-72
2021/07/16 01:39:43;;;;;;;11.30;10.30;;;;;;;17.54;100.00;101157.16;5070884;28;20174;-72
2021/07/16 01:42:10;;;;;;;9.50;8.50;;;;;;;17.54;100.00;101180.06;5070034;28;20235;-72
2021/07/16 01:44:37;;;;;;;8.97;8.07;;;;;;;17.49;100.00;101215.38;5069924;28;20214;-72
2021/07/16 01:47:03;;;;;;;10.57;8.77;;;;;;;17.53;100.00;101227.41;5070268;28;20177;-72
2021/07/16 01:49:29;;;;;;;8.80;7.90;;;;;;;17.52;100.00;101204.47;5070088;28;20190;-72
2021/07/16 01:51:54;;;;;;;8.20;7.40;;;;;;;17.51;100.00;101196.53;5070019;28;20174;-72
2021/07/16 01:54:20;;;;;;;15.50;10.07;;;;;;;17.52;100.00;101221.06;5070175;28;20170;-72
2021/07/16 01:56:45;;;;;;;9.83;8.87;;;;;;;17.52;100.00;101251.47;5069848;28;20510;-72
2021/07/16 01:59:12;;;;;;;12.73;8.80;;;;;;;17.50;100.00;101250.16;5070234;28;20269;-72
2021/07/16 02:01:37;;;;;;;11.00;9.93;;;;;;;17.47;100.00;101267.41;5073384;28;20213;-72
2021/07/16 02:04:03;;;;;;;9.37;8.37;;;;;;;17.46;100.00;101268.56;5074465;28;20262;-72
2021/07/16 02:06:30;;;;;;;10.67;9.00;;;;;;;17.44;100.00;101284.66;5074055;28;20634;-72
2021/07/16 02:08:56;;;;;;;10.77;8.33;;;;;;;17.40;100.00;101283.72;5074099;28;20235;-72
2021/07/16 02:11:22;;;;;;;10.00;8.90;;;;;;;17.40;100.00;101292.84;5073518;28;20673;-72
2021/07/16 02:13:49;;;;;;;11.57;10.47;;;;;;;17.42;100.00;101286.97;5073922;28;20170;-72
2021/07/16 02:16:15;;;;;;;10.77;9.67;;;;;;;17.42;100.00;101320.13;5073969;28;20227;-72
2021/07/16 02:18:40;;;;;;;10.87;9.77;;;;;;;17.40;100.00;101330.69;5072508;28;20244;-72
2021/07/16 02:21:06;;;;;;;10.10;9.10;;;;;;;17.41;100.00;101315.75;5073538;28;20565;-72
2021/07/16 02:23:31;;;;;;;10.30;8.93;;;;;;;17.38;100.00;101347.63;5073705;28;20487;-71
2021/07/16 02:25:58;;;;;;;12.90;7.77;;;;;;;17.34;100.00;101352.16;5073577;28;20634;-72
2021/07/16 02:28:31;;;;;;;9.57;8.10;;;;;;;17.34;100.00;101352.16;5073754;28;20171;-72
2021/07/16 02:31:02;;;;;;;9.27;8.47;;;;;;;17.33;100.00;101356.06;5073219;28;20209;-72
2021/07/16 02:33:28;;;;;;;11.80;9.27;;;;;;;17.32;100.00;101393.13;5072249;28;20171;-72
2021/07/16 02:35:53;;;;;;;10.20;9.10;;;;;;;17.34;100.00;101334.78;5073453;28;20224;-72
2021/07/16 02:38:21;;;;;;;6.80;6.20;;;;;;;17.34;100.00;101329.25;5073366;28;20185;-72
2021/07/16 02:40:47;;;;;;;10.27;8.77;;;;;;;17.31;100.00;101327.97;5073166;28;20205;-72
2021/07/16 02:43:14;;;;;;;9.27;8.37;;;;;;;17.34;100.00;101354.13;5073264;28;20175;-72
2021/07/16 02:45:40;;;;;;;9.70;8.03;;;;;;;17.30;100.00;101398.19;5073242;28;20171;-72
2021/07/16 02:48:06;;;;;;;10.87;9.13;;;;;;;17.29;100.00;101393.81;5073286;28;20185;-72
2021/07/16 02:50:34;;;;;;;10.07;9.17;;;;;;;17.28;100.00;101388.63;5073211;28;20198;-72
2021/07/16 02:53:00;;;;;;;10.23;8.83;;;;;;;17.27;100.00;101431.19;5073544;28;20174;-72
2021/07/16 02:55:26;;;;;;;10.50;9.57;;;;;;;17.23;100.00;101423.59;5072916;28;20477;-72
2021/07/16 02:57:51;;;;;;;9.60;8.70;;;;;;;17.22;100.00;101434.97;5073055;28;20175;-72
2021/07/16 03:00:23;;;;;;;10.70;9.67;;;;;;;17.18;100.00;101456.88;5072966;28;20641;-72
2021/07/16 03:02:50;;;;;;;10.43;8.27;;;;;;;17.19;100.00;101411.56;5072729;28;20460;-72
2021/07/16 03:05:18;;;;;;;9.93;8.93;;;;;;;17.13;100.00;101456.28;5072964;28;20248;-73
2021/07/16 03:07:45;;;;;;;9.10;8.30;;;;;;;17.11;100.00;101453.03;5072870;28;20281;-73
2021/07/16 03:10:18;;;;;;;9.97;9.03;;;;;;;17.09;100.00;101491.22;5072742;28;20714;-72
2021/07/16 03:12:43;;;;;;;10.27;9.37;;;;;;;17.04;100.00;101480.34;5071427;28;20645;-72
2021/07/16 03:15:12;;;;;;;9.10;8.30;;;;;;;17.02;100.00;101508.28;5072839;28;20174;-72
2021/07/16 03:17:39;;;;;;;11.43;9.43;;;;;;;17.00;100.00;101531.84;5072870;28;20175;-72
2021/07/16 03:20:09;;;;;;;9.97;9.00;;;;;;;17.00;100.00;101546.44;5072817;28;20216;-71
2021/07/16 03:22:34;;;;;;;14.57;9.30;;;;;;;17.04;100.00;101536.38;5072414;28;20174;-71
2021/07/16 03:25:00;;;;;;;9.40;7.73;;;;;;;17.03;100.00;101539.47;5072664;28;20630;-72
2021/07/16 03:27:25;;;;;;;9.87;6.60;;;;;;;16.93;100.00;101535.13;5072678;28;20167;-72
2021/07/16 03:29:50;;;;;;;8.40;7.73;;;;;;;16.94;100.00;101561.56;5072525;28;20233;-72
2021/07/16 03:32:16;;;;;;;8.60;7.77;;;;;;;16.94;100.00;101580.91;5072180;28;20189;-72
2021/07/16 03:34:41;;;;;;;8.53;7.73;;;;;;;16.91;100.00;101601.66;5072467;28;20181;-72
2021/07/16 03:37:06;;;;;;;9.57;8.30;;;;;;;16.91;100.00;101709.34;5072583;28;20182;-72
2021/07/16 03:39:32;;;;;;;12.33;7.70;;;;;;;16.92;100.00;101599.72;5072362;28;20185;-73
2021/07/16 03:41:57;;;;;;;9.97;8.33;;;;;;;16.88;100.00;101712.75;5072132;28;20261;-72
2021/07/16 03:44:23;;;;;;;14.43;8.83;;;;;;;16.88;100.00;101681.56;5072421;28;20175;-72
2021/07/16 03:46:48;;;;;;;9.50;8.07;;;;;;;16.87;100.00;101671.66;5072242;28;20258;-72
2021/07/16 03:49:13;;;;;;;9.30;8.33;;;;;;;16.86;100.00;101683.84;5072222;28;20202;-72
2021/07/16 03:51:39;;;;;;;7.60;7.00;;;;;;;16.81;100.00;101816.50;5072136;28;20206;-72
2021/07/16 03:54:05;;;;;;;12.03;8.20;;;;;;;16.81;100.00;101708.84;5072441;28;20175;-72
2021/07/16 03:56:30;;;;;;;9.37;6.93;;;;;;;16.79;100.00;101714.69;5071871;28;20593;-72
2021/07/16 03:58:56;;;;;;;5.70;5.13;;;;;;;16.79;100.00;101705.63;5071858;28;20646;-72
2021/07/16 04:01:21;;;;;;;8.80;8.00;;;;;;;16.77;100.00;101686.59;5071719;28;20225;-72
2021/07/16 04:03:46;;;;;;;9.47;8.50;;;;;;;16.77;100.00;101732.69;5071942;28;20179;-72
2021/07/16 04:06:12;;;;;;;8.93;8.13;;;;;;;16.78;100.00;101767.44;5072243;28;20185;-72
2021/07/16 04:08:39;;;;;;;7.50;6.53;;;;;;;16.75;100.00;101735.78;5071830;28;20266;-73
2021/07/16 04:11:05;;;;;;;8.63;7.83;;;;;;;16.71;100.00;101715.47;5071367;28;20225;-72
2021/07/16 04:13:30;;;;;;;9.13;8.23;;;;;;;16.68;100.00;101732.69;5071751;28;20175;-72
2021/07/16 04:15:56;;;;;;;12.47;8.43;;;;;;;16.72;100.00;101719.88;5070488;28;20197;-72
2021/07/16 04:18:21;;;;;;;10.70;7.30;;;;;;;16.71;100.00;101696.16;5071808;28;20257;-72
2021/07/16 04:20:46;;;;;;;6.57;5.97;;;;;;;16.69;100.00;101711.44;5071519;28;20509;-72
2021/07/16 04:23:12;;;;;;;7.30;6.67;;;;;;;16.69;100.00;101623.13;5071327;28;20170;-72
2021/07/16 04:25:37;;;;;;;9.03;8.13;;;;;;;16.68;100.00;101652.66;5071956;28;20182;-73
2021/07/16 04:28:03;;;;;;;9.10;8.20;;;;;;;16.68;100.00;101705.09;5071498;28;20178;-72
2021/07/16 04:30:31;;;;;;;7.90;7.20;;;;;;;16.63;100.00;101741.06;5070175;28;20202;-72
2021/07/16 04:32:59;;;;;;;8.37;7.20;;;;;;;16.62;100.00;101729.22;5071227;28;20170;-73
2021/07/16 04:35:24;;;;;;;12.17;7.27;;;;;;;16.60;100.00;101737.00;5071464;28;20171;-73
2021/07/16 04:37:50;;;;;;;7.43;6.73;;;;;;;16.59;100.00;101716.06;5071369;28;20204;-73
2021/07/16 04:40:20;;;;;;;8.30;7.50;;;;;;;16.55;100.00;101706.81;5071384;28;20178;-74
2021/07/16 04:42:45;;;;;;;9.03;8.23;;;;;;;16.53;100.00;101702.75;5071061;28;20185;-73
2021/07/16 04:45:12;;;;;;;7.87;7.27;;;;;;;16.54;100.00;101707.13;5071354;28;20182;-73
2021/07/16 04:47:39;;;;;;;8.13;7.30;;;;;;;16.53;100.00;101656.66;5071507;28;20187;-73
2021/07/16 04:50:05;;;;;;;18.63;9.30;;;;;;;16.54;100.00;101713.47;5074452;28;20214;-73
2021/07/16 04:52:30;;;;;;;12.40;7.53;;;;;;;16.58;100.00;101694.31;5074321;28;20179;-73
2021/07/16 04:54:56;;;;;;;8.30;7.50;;;;;;;16.54;100.00;101688.63;5071099;28;20186;-74
2021/07/16 04:57:21;;;;;;;11.23;8.37;;;;;;;16.53;100.00;101750.47;5071220;28;20171;-73
2021/07/16 04:59:46;;;;;;;10.53;8.53;;;;;;;16.54;100.00;101705.19;5071429;28;20209;-73
2021/07/16 05:02:12;;;;;;;10.33;7.87;;;;;;;16.58;100.00;101735.72;5066578;28;20279;-73
2021/07/16 05:04:37;;;;;;;11.10;8.93;;;;;;;16.51;100.00;101733.44;5071029;28;20898;-73
2021/07/16 05:07:03;;;;;;;11.93;9.63;;;;;;;16.49;100.00;101788.13;5070884;28;20174;-73
2021/07/16 05:09:28;;;;;;;14.87;9.57;;;;;;;16.52;100.00;101717.69;5070450;28;20201;-73
2021/07/16 05:11:53;;;;;;;12.70;10.53;;;;;;;16.49;100.00;101705.34;5070543;28;20202;-73
2021/07/16 05:14:19;;;;;;;18.97;8.73;;;;;;;16.49;100.00;101729.34;5069099;28;20210;-74
2021/07/16 05:16:44;;;;;;;15.23;10.73;;;;;;;16.51;100.00;101683.78;5070264;28;20773;-74
2021/07/16 05:19:10;;;;;;;12.80;11.53;;;;;;;16.51;100.00;101721.59;5070624;28;20395;-73
2021/07/16 05:21:35;;;;;;;18.80;11.77;;;;;;;16.51;100.00;101762.97;5067211;28;20236;-73
2021/07/16 05:24:01;;;;;;;23.73;12.03;;;;;;;16.53;100.00;101733.91;5066647;28;20707;-73
2021/07/16 05:26:27;;;;;;;15.50;10.67;;;;;;;16.58;100.00;101815.72;5070435;28;20190;-74
2021/07/16 05:28:52;;;;;;;19.90;11.43;;;;;;;16.54;100.00;101825.78;5070853;28;20178;-73
2021/07/16 05:31:18;;;;;;;14.87;11.67;;;;;;;16.56;100.00;101824.31;5069527;28;20697;-74
2021/07/16 05:33:44;;;;;;;26.37;11.33;;;;;;;16.57;100.00;101816.88;5070475;28;20182;-73
2021/07/16 05:36:10;;;;;;;23.00;9.30;;;;;;;16.58;100.00;101746.75;5069628;28;20202;-73
2021/07/16 05:38:37;;;;;;;21.10;11.57;;;;;;;16.58;100.00;101848.84;5070215;28;20622;-74
2021/07/16 05:41:04;;;;;;;19.57;12.70;;;;;;;16.58;100.00;101812.97;5070374;28;20232;-73
2021/07/16 05:43:29;;;;;;;22.87;12.43;;;;;;;16.61;100.00;101842.69;5070774;28;20178;-73
2021/07/16 05:45:55;;;;;;;12.93;11.53;;;;;;;16.63;100.00;101801.78;5070261;28;20646;-73
2021/07/16 05:48:21;;;;;;;19.53;11.23;;;;;;;16.63;100.00;101868.81;5070257;28;20177;-73
2021/07/16 05:50:47;;;;;;;16.63;11.50;;;;;;;16.68;100.00;101848.59;5069857;28;20198;-73
2021/07/16 05:53:13;;;;;;;15.17;9.53;;;;;;;16.70;100.00;101791.13;5070140;28;20593;-73
2021/07/16 05:55:38;;;;;;;12.40;11.20;;;;;;;16.61;100.00;101810.38;5070052;28;20228;-73
2021/07/16 05:58:04;;;;;;;11.97;9.50;;;;;;;16.64;100.00;101803.44;5070026;28;20186;-73
2021/07/16 06:00:30;;;;;;;24.90;11.87;;;;;;;16.63;100.00;101808.13;5069925;28;20171;-73
2021/07/16 06:02:56;;;;;;;11.93;9.50;;;;;;;16.59;100.00;101854.03;5069891;28;20440;-72
2021/07/16 06:05:21;;;;;;;24.50;10.33;;;;;;;16.61;100.00;101804.84;5070241;28;20171;-73
2021/07/16 06:07:47;;;;;;;19.23;9.50;;;;;;;16.65;100.00;101866.59;5069056;28;20592;-73
2021/07/16 06:10:13;;;;;;;11.70;9.77;;;;;;;16.64;100.00;101902.78;5068620;28;20289;-73
2021/07/16 06:12:39;;;;;;;14.57;8.53;;;;;;;16.60;100.00;101841.88;5068491;28;20514;-73
2021/07/16 06:15:05;;;;;;;9.90;8.43;;;;;;;16.54;100.00;101864.41;5070119;28;20174;-73
2021/07/16 06:17:32;;;;;;;12.20;10.87;;;;;;;16.53;100.00;101780.00;5068680;28;20179;-73
2021/07/16 06:19:58;;;;;;;14.57;10.27;;;;;;;16.57;100.00;101852.72;5069589;28;20312;-73
2021/07/16 06:22:24;;;;;;;10.57;9.57;;;;;;;16.62;100.00;101839.59;5069991;28;20268;-72
2021/07/16 06:24:49;;;;;;;22.80;10.93;;;;;;;16.65;100.00;101869.34;5068160;28;20328;-72
2021/07/16 06:27:15;;;;;;;11.30;8.93;;;;;;;16.68;100.00;101908.50;5069493;28;20182;-72
2021/07/16 06:29:41;;;;;;;9.30;7.77;;;;;;;16.58;100.00;101813.78;5069571;28;20720;-72
2021/07/16 06:32:06;;;;;;;24.77;11.00;;;;;;;16.58;100.00;101923.34;5069384;28;20301;-72
2021/07/16 06:34:32;;;;;;;14.87;9.57;;;;;;;16.61;100.00;101802.09;5069876;28;20181;-72
2021/07/16 06:36:57;;;;;;;11.13;9.70;;;;;;;16.61;100.00;101856.47;5069728;28;20175;-72
2021/07/16 06:39:23;;;;;;;12.20;9.63;;;;;;;16.65;100.00;101832.66;5069003;28;20200;-76
2021/07/16 06:41:48;;;;;;;17.73;10.07;;;;;;;16.66;100.00;101859.94;5065889;28;20182;-73
2021/07/16 06:44:14;;;;;;;22.03;11.07;;;;;;;16.63;100.00;101907.47;5069533;28;20175;-73
2021/07/16 06:46:40;;;;;;;12.67;11.43;;;;;;;16.72;100.00;101854.28;5071147;28;20181;-73
2021/07/16 06:49:06;;;;;;;12.87;11.57;;;;;;;16.74;100.00;101930.13;5070772;28;20182;-73
2021/07/16 06:51:33;;;;;;;12.80;9.50;;;;;;;16.80;100.00;101928.06;5070953;28;20697;-74
2021/07/16 06:53:58;;;;;;;15.27;10.63;;;;;;;16.84;100.00;101981.50;5073330;28;20185;-77
2021/07/16 06:56:24;;;;;;;13.37;9.77;;;;;;;16.82;100.00;101956.16;5073175;28;20179;-75
2021/07/16 06:58:51;;;;;;;12.73;8.07;;;;;;;16.79;100.00;101879.50;5073189;28;20171;-74
2021/07/16 07:01:17;;;;;;;16.43;10.50;;;;;;;16.78;100.00;101878.69;5072695;28;20170;-72
2021/07/16 07:03:43;;;;;;;7.87;7.03;;;;;;;16.77;100.00;101867.94;5072880;28;20276;-72
2021/07/16 07:06:08;;;;;;;22.50;9.77;;;;;;;16.73;100.00;101900.91;5070453;28;20265;-72
2021/07/16 07:08:33;;;;;;;12.40;9.00;;;;;;;16.71;100.00;101930.75;5072394;28;20186;-72
2021/07/16 07:10:58;;;;;;;17.63;6.63;;;;;;;16.70;100.00;101925.56;5072926;28;20202;-71
2021/07/16 07:13:24;;;;;;;10.83;8.83;;;;;;;16.68;100.00;101831.22;5071171;28;20174;-72
2021/07/16 07:15:49;;;;;;;14.13;9.47;;;;;;;16.71;100.00;101852.66;5072313;28;20392;-72
2021/07/16 07:18:14;;;;;;;9.37;7.90;;;;;;;16.75;100.00;101875.72;5071086;28;20178;-72
2021/07/16 07:20:40;;;;;;;10.30;7.50;;;;;;;16.78;100.00;101829.00;5071631;28;20540;-72
2021/07/16 07:23:06;;;;;;;10.27;9.07;;;;;;;16.79;100.00;101866.53;5065551;28;20198;-72
2021/07/16 07:25:31;;;;;;;15.23;7.57;;;;;;;16.84;100.00;101905.00;5069670;28;20191;-72
2021/07/16 07:27:57;;;;;;;14.50;8.77;;;;;;;16.86;100.00;101875.13;5069674;28;20232;-72
2021/07/16 07:30:23;;;;;;;17.23;9.47;;;;;;;16.93;100.00;101867.22;5071656;28;20248;-72
2021/07/16 07:32:49;;;;;;;9.33;8.37;;;;;;;17.00;100.00;101830.03;5071919;28;20582;-72
2021/07/16 07:35:15;;;;;;;12.67;9.07;;;;;;;17.04;100.00;101814.44;5072200;28;20175;-73
2021/07/16 07:37:41;;;;;;;11.67;8.23;;;;;;;17.04;100.00;101892.56;5071971;28;20235;-72
2021/07/16 07:40:13;;;;;;;11.50;8.17;;;;;;;17.03;100.00;101885.44;5069773;28;20205;-72
2021/07/16 07:42:39;;;;;;;9.50;8.03;;;;;;;17.03;100.00;101854.25;5071031;28;20707;-72
2021/07/16 07:45:06;;;;;;;18.33;9.70;;;;;;;17.06;100.00;101898.59;5072480;28;20175;-72
2021/07/16 07:47:32;;;;;;;7.30;6.60;;;;;;;17.07;100.00;101836.72;5070413;28;20651;-71
2021/07/16 07:49:59;;;;;;;20.40;8.97;;;;;;;17.02;100.00;101836.84;5070244;28;20653;-72
2021/07/16 07:52:25;;;;;;;10.30;7.93;;;;;;;17.02;100.00;101842.38;5072241;28;20170;-72
2021/07/16 07:54:51;;;;;;;15.53;7.33;;;;;;;17.05;100.00;101807.78;5071811;28;20208;-72
2021/07/16 07:57:16;;;;;;;15.53;8.47;;;;;;;17.08;100.00;101766.56;5071606;28;20175;-71
2021/07/16 07:59:43;;;;;;;14.40;8.83;;;;;;;17.10;100.00;101769.00;5070773;28;20166;-72
2021/07/16 08:02:09;;;;;;;9.53;8.43;;;;;;;17.05;100.00;101761.66;5071841;28;20654;-72
2021/07/16 08:04:36;;;;;;;9.60;8.27;;;;;;;17.11;100.00;101751.28;5071599;28;20174;-72
2021/07/16 08:07:02;;;;;;;11.40;8.10;;;;;;;17.09;100.00;101717.66;5072162;28;20171;-74
2021/07/16 08:09:28;;;;;;;11.70;7.03;;;;;;;17.16;100.00;101764.94;5071831;28;20638;-75
2021/07/16 08:11:54;;;;;;;12.73;8.57;;;;;;;17.22;100.00;101775.50;5069997;28;20289;-74
2021/07/16 08:14:20;;;;;;;13.23;7.90;;;;;;;17.38;100.00;101833.03;5068525;28;20600;-74
2021/07/16 08:16:46;;;;;;;9.17;8.27;;;;;;;17.33;100.00;101847.00;5071195;28;20178;-74
2021/07/16 08:19:17;;;;;;;12.90;7.63;;;;;;;17.40;100.00;101765.28;5071680;28;20197;-74
2021/07/16 08:21:46;;;;;;;9.20;7.90;;;;;;;17.38;100.00;101739.09;5071439;28;20174;-75
2021/07/16 08:24:12;;;;;;;17.53;8.63;;;;;;;17.37;100.00;101690.53;5071671;28;20224;-74
2021/07/16 08:26:38;;;;;;;8.43;7.43;;;;;;;17.44;100.00;101683.34;5071611;28;20178;-74
2021/07/16 08:29:03;;;;;;;8.30;5.13;;;;;;;17.47;99.94;101670.81;5070118;28;20178;-74
2021/07/16 08:31:28;;;;;;;11.50;7.00;;;;;;;17.45;99.95;101660.09;5071246;28;20204;-74
2021/07/16 08:33:54;;;;;;;12.20;8.27;;;;;;;17.44;99.83;101641.09;5071539;28;20265;-73
2021/07/16 08:36:19;;;;;;;8.53;6.20;;;;;;;17.45;100.00;101649.03;5071565;28;20511;-74
2021/07/16 08:38:46;;;;;;;7.30;6.60;;;;;;;17.49;100.00;101633.41;5071499;28;20194;-74
2021/07/16 08:41:11;;;;;;;12.87;7.50;;;;;;;17.53;99.83;101641.88;5070982;28;20269;-74
2021/07/16 08:43:40;;;;;;;9.17;7.47;;;;;;;17.59;100.00;101651.63;5069774;28;20677;-75
2021/07/16 08:46:08;;;;;;;9.03;6.50;;;;;;;17.64;99.19;101642.31;5071390;28;20189;-74
2021/07/16 08:48:35;;;;;;;8.50;7.57;;;;;;;17.72;99.44;101634.06;5071373;28;20262;-74
2021/07/16 08:51:00;;;;;;;10.20;7.80;;;;;;;17.78;98.59;101665.06;5070882;28;20213;-74
2021/07/16 08:53:27;;;;;;;8.10;7.33;;;;;;;17.82;98.15;101663.28;5071171;28;20171;-75
2021/07/16 08:55:52;;;;;;;8.50;7.00;;;;;;;17.84;97.82;101636.94;5069432;28;20175;-74
2021/07/16 08:58:18;;;;;;;9.40;7.13;;;;;;;17.92;97.80;101626.16;5070762;28;20630;-75
2021/07/16 09:00:43;;;;;;;12.57;6.90;;;;;;;17.96;97.49;101613.31;5070879;28;20626;-73
2021/07/16 09:03:10;;;;;;;9.23;6.90;;;;;;;18.00;96.91;101622.56;5070713;28;20190;-74
2021/07/16 09:05:42;;;;;;;11.20;8.13;;;;;;;17.99;96.57;101607.09;5070917;28;20170;-75
2021/07/16 09:08:19;;;;;;;7.77;7.00;;;;;;;18.02;96.54;101596.19;5070935;28;20167;-75
2021/07/16 09:10:54;;;;;;;7.87;6.80;;;;;;;18.13;96.63;101596.63;5069816;28;20293;-73
2021/07/16 09:13:23;;;;;;;6.93;6.20;;;;;;;18.03;95.55;101597.00;5070847;28;20173;-74
2021/07/16 09:15:51;;;;;;;8.33;7.27;;;;;;;18.06;96.06;101612.91;5070544;28;20179;-74
2021/07/16 09:18:22;;;;;;;12.60;7.60;;;;;;;18.13;96.19;101608.50;5070757;28;20684;-74
2021/07/16 09:21:05;;;;;;;8.80;7.90;;;;;;;18.28;96.46;101625.66;5070426;28;20645;-74
2021/07/16 09:23:33;;;;;;;8.50;7.23;;;;;;;18.27;94.79;101588.88;5070800;28;20170;-74
2021/07/16 09:26:12;;;;;;;8.60;5.60;;;;;;;18.16;94.06;101584.88;5070011;28;20580;-74
2021/07/16 09:28:46;;;;;;;10.50;6.03;;;;;;;18.22;95.12;101588.25;5070200;28;20174;-75
2021/07/16 09:31:23;;;;;;;12.90;8.73;;;;;;;18.30;95.30;101582.66;5069815;28;20220;-74
2021/07/16 09:33:57;;;;;;;11.83;7.17;;;;;;;18.44;94.45;101579.66;5070268;28;20170;-71
2021/07/16 09:36:32;;;;;;;6.43;5.83;;;;;;;18.40;93.43;101587.81;5070466;28;20170;-74
2021/07/16 09:39:19;;;;;;;11.57;8.07;;;;;;;18.25;93.88;101571.81;5070537;28;20225;-73
2021/07/16 09:41:50;;;;;;;10.03;5.97;;;;;;;18.22;94.33;101546.75;5068564;28;20193;-74
2021/07/16 09:44:30;;;;;;;7.33;6.43;;;;;;;18.30;94.37;101555.00;5069949;28;20585;-74
2021/07/16 09:47:09;;;;;;;6.60;5.73;;;;;;;18.35;94.03;101542.91;5069236;28;20178;-74
2021/07/16 09:49:35;;;;;;;12.00;6.93;;;;;;;18.43;94.28;101534.56;5069202;28;20174;-74
2021/07/16 09:52:16;;;;;;;7.87;4.77;;;;;;;18.41;93.88;101536.88;5069714;28;20175;-77
2021/07/16 09:55:15;;;;;;;11.23;7.43;;;;;;;18.54;94.34;101546.03;5070371;28;20174;-74
2021/07/16 09:57:45;;;;;;;11.87;5.33;;;;;;;18.66;94.29;101540.59;5070282;28;20220;-74
2021/07/16 10:00:15;;;;;;;8.10;5.87;;;;;;;18.70;92.78;101540.72;5070116;28;20189;-75
2021/07/16 10:02:44;;;;;;;14.83;7.17;;;;;;;18.65;92.19;101549.22;5070011;28;20197;-74
2021/07/16 10:05:10;;;;;;;8.10;6.13;;;;;;;18.70;92.94;101546.25;5068925;28;20535;-74
2021/07/16 10:07:36;;;;;;;15.43;7.23;;;;;;;18.69;92.75;101533.56;5065790;28;20175;-74
2021/07/16 10:10:02;;;;;;;6.53;5.90;;;;;;;18.76;92.74;101603.03;5069869;28;20202;-74
2021/07/16 10:12:30;;;;;;;18.80;5.70;;;;;;;18.84;91.69;101543.19;5069855;28;20263;-75
2021/07/16 10:14:56;;;;;;;7.77;6.97;;;;;;;18.80;91.35;101528.41;5070082;28;20194;-74
2021/07/16 10:17:22;;;;;;;6.90;6.17;;;;;;;18.96;91.37;101529.41;5070135;28;20274;-74
2021/07/16 10:19:49;;;;;;;6.77;6.17;;;;;;;18.97;90.73;101514.41;5070099;28;20182;-73
2021/07/16 10:22:15;;;;;;;8.30;5.43;;;;;;;18.95;90.13;101514.75;5072362;28;20185;-74
2021/07/16 10:24:41;;;;;;;16.50;6.33;;;;;;;19.00;90.42;101503.44;5070151;28;20198;-74
2021/07/16 10:27:07;;;;;;;8.83;6.97;;;;;;;19.12;90.39;101505.44;5073594;28;20273;-74
2021/07/16 10:29:43;;;;;;;6.40;5.20;;;;;;;19.36;89.64;101507.41;5071819;28;20258;-75
2021/07/16 10:32:09;;;;;;;6.57;5.77;;;;;;;19.29;88.93;101508.00;5072664;28;20193;-74
2021/07/16 10:34:36;;;;;;;6.30;5.17;;;;;;;19.21;88.75;101503.34;5073463;28;20540;-74
2021/07/16 10:37:07;;;;;;;7.03;6.33;;;;;;;19.28;90.75;101935.13;5073547;28;20182;-74
2021/07/16 10:39:51;;;;;;;12.40;7.23;;;;;;;19.29;90.15;102026.22;5071283;28;20273;-75
2021/07/16 10:42:25;;;;;;;6.30;5.50;;;;;;;19.35;90.74;101719.19;5071719;28;20217;-74
2021/07/16 10:44:52;;;;;;;4.30;3.83;;;;;;;19.22;90.51;101667.63;5066057;28;20183;-75
2021/07/16 10:47:47;;;;;;;9.53;5.93;;;;;;;19.16;91.20;101680.09;5078117;28;20669;-75
2021/07/16 10:50:36;;;;;;;5.60;5.10;;;;;;;19.13;90.34;101642.81;5060727;28;20217;-75
2021/07/16 10:53:03;;;;;;;6.47;5.83;;;;;;;19.14;90.34;101621.44;5051705;28;20244;-75
2021/07/16 10:55:28;;;;;;;7.00;5.67;;;;;;;19.18;91.08;101903.03;5052024;28;20229;-75
2021/07/16 10:57:54;;;;;;;7.80;5.97;;;;;;;19.21;91.34;101913.44;5053089;28;20171;-74
2021/07/16 11:00:37;;;;;;;5.70;5.07;;;;;;;19.18;90.66;101910.53;5052892;28;20179;-75
2021/07/16 11:03:07;;;;;;;6.97;6.17;;;;;;;19.23;89.84;101818.91;5052632;28;20586;-75
2021/07/16 11:05:33;;;;;;;8.07;6.20;;;;;;;19.33;89.79;101786.06;5052896;28;20642;-75
2021/07/16 11:07:59;;;;;;;7.77;6.20;;;;;;;19.37;89.43;101747.38;5052931;28;20164;-74
2021/07/16 11:10:43;;;;;;;9.43;5.07;;;;;;;19.37;89.27;101707.78;5051325;28;20226;-75
2021/07/16 11:13:36;;;;;;;6.23;5.40;;;;;;;19.51;89.62;101680.56;5061307;28;20666;-76